sensor_id;sensor_type;location;lat;lon;timestamp;P1;durP1;ratioP1;P2;durP2;ratioP2
75603;SDS011;64187;51.010;13.792;2024-03-17T00:03:22;5.03;;;1.65;;
75603;SDS011;64187;51.010;13.792;2024-03-17T00:08:20;3.85;;;1.17;;
75603;SDS011;64187;51.010;13.792;2024-03-17T00:13:18;3.08;;;1.73;;
75603;SDS011;64187;51.010;13.792;2024-03-17T00:18:17;2.42;;;1.40;;
75603;SDS011;64187;51.010;13.792;2024-03-17T00:23:15;4.85;;;2.00;;
75603;SDS011;64187;51.010;13.792;2024-03-17T00:28:13;3.92;;;1.45;;
75603;SDS011;64187;51.010;13.792;2024-03-17T00:33:11;3.80;;;1.90;;
75603;SDS011;64187;51.010;13.792;2024-03-17T00:38:09;6.80;;;1.65;;
75603;SDS011;64187;51.010;13.792;2024-03-17T00:43:09;3.70;;;1.45;;
75603;SDS011;64187;51.010;13.792;2024-03-17T00:48:09;4.65;;;2.05;;
75603;SDS011;64187;51.010;13.792;2024-03-17T00:53:07;3.53;;;1.60;;
75603;SDS011;64187;51.010;13.792;2024-03-17T00:58:05;3.97;;;1.70;;
75603;SDS011;64187;51.010;13.792;2024-03-17T01:03:03;3.40;;;1.48;;
75603;SDS011;64187;51.010;13.792;2024-03-17T01:08:01;4.32;;;1.83;;
75603;SDS011;64187;51.010;13.792;2024-03-17T01:12:59;3.95;;;1.73;;
75603;SDS011;64187;51.010;13.792;2024-03-17T01:17:57;6.80;;;2.13;;
75603;SDS011;64187;51.010;13.792;2024-03-17T01:22:55;4.45;;;1.65;;
75603;SDS011;64187;51.010;13.792;2024-03-17T01:27:53;6.53;;;2.00;;
75603;SDS011;64187;51.010;13.792;2024-03-17T01:32:51;2.38;;;1.60;;
75603;SDS011;64187;51.010;13.792;2024-03-17T01:37:49;1.75;;;1.35;;
75603;SDS011;64187;51.010;13.792;2024-03-17T01:42:47;3.65;;;1.70;;
75603;SDS011;64187;51.010;13.792;2024-03-17T01:47:45;8.38;;;2.33;;
75603;SDS011;64187;51.010;13.792;2024-03-17T01:52:43;4.32;;;1.95;;
75603;SDS011;64187;51.010;13.792;2024-03-17T01:57:41;4.32;;;2.05;;
75603;SDS011;64187;51.010;13.792;2024-03-17T02:02:39;6.50;;;2.05;;
75603;SDS011;64187;51.010;13.792;2024-03-17T02:07:37;5.45;;;1.80;;
75603;SDS011;64187;51.010;13.792;2024-03-17T02:19:33;4.13;;;1.60;;
75603;SDS011;64187;51.010;13.792;2024-03-17T02:24:31;6.03;;;2.20;;
75603;SDS011;64187;51.010;13.792;2024-03-17T02:29:29;5.57;;;2.00;;
75603;SDS011;64187;51.010;13.792;2024-03-17T02:34:27;4.28;;;1.90;;
75603;SDS011;64187;51.010;13.792;2024-03-17T02:39:24;5.47;;;1.92;;
75603;SDS011;64187;51.010;13.792;2024-03-17T02:44:32;4.07;;;2.00;;
75603;SDS011;64187;51.010;13.792;2024-03-17T02:49:31;2.83;;;1.58;;
75603;SDS011;64187;51.010;13.792;2024-03-17T02:54:34;5.80;;;2.50;;
75603;SDS011;64187;51.010;13.792;2024-03-17T02:59:33;4.05;;;1.83;;
75603;SDS011;64187;51.010;13.792;2024-03-17T03:04:31;2.92;;;1.80;;
75603;SDS011;64187;51.010;13.792;2024-03-17T03:09:29;2.33;;;1.58;;
75603;SDS011;64187;51.010;13.792;2024-03-17T03:14:30;3.38;;;1.88;;
75603;SDS011;64187;51.010;13.792;2024-03-17T03:19:29;3.22;;;1.45;;
75603;SDS011;64187;51.010;13.792;2024-03-17T03:24:27;6.18;;;2.25;;
75603;SDS011;64187;51.010;13.792;2024-03-17T03:29:25;4.03;;;2.03;;
75603;SDS011;64187;51.010;13.792;2024-03-17T03:34:23;3.22;;;1.60;;
75603;SDS011;64187;51.010;13.792;2024-03-17T03:39:21;2.80;;;1.83;;
75603;SDS011;64187;51.010;13.792;2024-03-17T03:44:19;2.63;;;2.00;;
75603;SDS011;64187;51.010;13.792;2024-03-17T03:49:17;3.65;;;1.77;;
75603;SDS011;64187;51.010;13.792;2024-03-17T03:54:16;3.58;;;2.05;;
75603;SDS011;64187;51.010;13.792;2024-03-17T03:59:14;4.20;;;2.13;;
75603;SDS011;64187;51.010;13.792;2024-03-17T04:04:12;5.43;;;2.00;;
75603;SDS011;64187;51.010;13.792;2024-03-17T04:09:10;4.45;;;1.85;;
75603;SDS011;64187;51.010;13.792;2024-03-17T04:14:08;4.00;;;1.83;;
75603;SDS011;64187;51.010;13.792;2024-03-17T04:19:06;4.93;;;2.20;;
75603;SDS011;64187;51.010;13.792;2024-03-17T04:24:04;3.63;;;2.20;;
75603;SDS011;64187;51.010;13.792;2024-03-17T04:29:02;6.07;;;1.90;;
75603;SDS011;64187;51.010;13.792;2024-03-17T04:34:00;3.17;;;1.70;;
75603;SDS011;64187;51.010;13.792;2024-03-17T04:38:58;4.47;;;2.10;;
75603;SDS011;64187;51.010;13.792;2024-03-17T04:43:56;5.18;;;2.10;;
75603;SDS011;64187;51.010;13.792;2024-03-17T04:48:54;6.22;;;2.25;;
75603;SDS011;64187;51.010;13.792;2024-03-17T04:53:52;6.32;;;2.30;;
75603;SDS011;64187;51.010;13.792;2024-03-17T04:58:50;6.38;;;1.90;;
75603;SDS011;64187;51.010;13.792;2024-03-17T05:03:50;6.28;;;2.22;;
75603;SDS011;64187;51.010;13.792;2024-03-17T05:08:49;4.80;;;1.85;;
75603;SDS011;64187;51.010;13.792;2024-03-17T05:13:46;9.05;;;2.22;;
75603;SDS011;64187;51.010;13.792;2024-03-17T05:18:44;7.80;;;2.17;;
75603;SDS011;64187;51.010;13.792;2024-03-17T05:23:42;4.28;;;2.15;;
75603;SDS011;64187;51.010;13.792;2024-03-17T05:28:40;3.92;;;1.85;;
75603;SDS011;64187;51.010;13.792;2024-03-17T05:33:38;6.70;;;2.20;;
75603;SDS011;64187;51.010;13.792;2024-03-17T05:38:36;5.20;;;2.20;;
75603;SDS011;64187;51.010;13.792;2024-03-17T05:43:34;5.05;;;2.53;;
75603;SDS011;64187;51.010;13.792;2024-03-17T05:48:34;3.20;;;1.90;;
75603;SDS011;64187;51.010;13.792;2024-03-17T05:53:38;7.75;;;2.20;;
75603;SDS011;64187;51.010;13.792;2024-03-17T05:58:42;3.88;;;2.20;;
75603;SDS011;64187;51.010;13.792;2024-03-17T06:03:40;8.07;;;2.20;;
75603;SDS011;64187;51.010;13.792;2024-03-17T06:08:39;6.35;;;2.13;;
75603;SDS011;64187;51.010;13.792;2024-03-17T06:13:37;6.22;;;1.90;;
75603;SDS011;64187;51.010;13.792;2024-03-17T06:18:52;3.00;;;1.90;;
75603;SDS011;64187;51.010;13.792;2024-03-17T06:23:52;4.45;;;1.90;;
75603;SDS011;64187;51.010;13.792;2024-03-17T06:28:50;4.57;;;2.15;;
75603;SDS011;64187;51.010;13.792;2024-03-17T06:33:47;4.53;;;2.15;;
75603;SDS011;64187;51.010;13.792;2024-03-17T06:38:46;4.82;;;1.95;;
75603;SDS011;64187;51.010;13.792;2024-03-17T06:43:44;6.05;;;2.83;;
75603;SDS011;64187;51.010;13.792;2024-03-17T06:48:42;6.20;;;2.15;;
75603;SDS011;64187;51.010;13.792;2024-03-17T06:53:40;7.82;;;2.80;;
75603;SDS011;64187;51.010;13.792;2024-03-17T06:58:37;5.38;;;2.25;;
75603;SDS011;64187;51.010;13.792;2024-03-17T07:03:35;3.70;;;1.88;;
75603;SDS011;64187;51.010;13.792;2024-03-17T07:08:33;4.85;;;2.47;;
75603;SDS011;64187;51.010;13.792;2024-03-17T07:13:32;4.63;;;2.05;;
75603;SDS011;64187;51.010;13.792;2024-03-17T07:18:32;3.92;;;1.70;;
75603;SDS011;64187;51.010;13.792;2024-03-17T07:23:30;4.03;;;1.67;;
75603;SDS011;64187;51.010;13.792;2024-03-17T07:28:28;10.07;;;1.92;;
75603;SDS011;64187;51.010;13.792;2024-03-17T07:33:26;4.68;;;2.33;;
75603;SDS011;64187;51.010;13.792;2024-03-17T07:38:24;5.68;;;1.40;;
75603;SDS011;64187;51.010;13.792;2024-03-17T07:43:24;9.35;;;1.95;;
75603;SDS011;64187;51.010;13.792;2024-03-17T07:48:22;6.20;;;2.10;;
75603;SDS011;64187;51.010;13.792;2024-03-17T07:53:21;3.65;;;1.52;;
75603;SDS011;64187;51.010;13.792;2024-03-17T07:58:18;3.45;;;1.50;;
75603;SDS011;64187;51.010;13.792;2024-03-17T08:03:16;10.13;;;2.10;;
75603;SDS011;64187;51.010;13.792;2024-03-17T08:08:15;6.88;;;1.70;;
75603;SDS011;64187;51.010;13.792;2024-03-17T08:13:14;9.07;;;1.90;;
75603;SDS011;64187;51.010;13.792;2024-03-17T08:18:13;8.52;;;2.03;;
75603;SDS011;64187;51.010;13.792;2024-03-17T08:23:11;5.25;;;1.98;;
75603;SDS011;64187;51.010;13.792;2024-03-17T08:28:10;5.90;;;1.63;;
75603;SDS011;64187;51.010;13.792;2024-03-17T08:33:08;8.13;;;1.70;;
75603;SDS011;64187;51.010;13.792;2024-03-17T08:38:06;9.38;;;2.00;;
75603;SDS011;64187;51.010;13.792;2024-03-17T08:43:04;4.72;;;1.50;;
75603;SDS011;64187;51.010;13.792;2024-03-17T08:48:02;5.97;;;1.42;;
75603;SDS011;64187;51.010;13.792;2024-03-17T08:53:00;6.70;;;1.75;;
75603;SDS011;64187;51.010;13.792;2024-03-17T08:57:58;8.40;;;1.90;;
75603;SDS011;64187;51.010;13.792;2024-03-17T09:02:56;5.25;;;2.00;;
75603;SDS011;64187;51.010;13.792;2024-03-17T09:07:54;4.65;;;1.90;;
75603;SDS011;64187;51.010;13.792;2024-03-17T09:12:52;1.98;;;1.02;;
75603;SDS011;64187;51.010;13.792;2024-03-17T09:17:50;5.22;;;1.92;;
75603;SDS011;64187;51.010;13.792;2024-03-17T09:22:49;3.10;;;1.33;;
75603;SDS011;64187;51.010;13.792;2024-03-17T09:27:46;3.67;;;1.17;;
75603;SDS011;64187;51.010;13.792;2024-03-17T09:32:44;4.15;;;1.27;;
75603;SDS011;64187;51.010;13.792;2024-03-17T09:37:42;5.25;;;1.50;;
75603;SDS011;64187;51.010;13.792;2024-03-17T09:42:41;5.70;;;1.23;;
75603;SDS011;64187;51.010;13.792;2024-03-17T09:47:40;5.30;;;1.52;;
75603;SDS011;64187;51.010;13.792;2024-03-17T09:52:38;6.07;;;2.17;;
75603;SDS011;64187;51.010;13.792;2024-03-17T09:57:36;6.57;;;1.30;;
75603;SDS011;64187;51.010;13.792;2024-03-17T10:02:34;6.63;;;1.38;;
75603;SDS011;64187;51.010;13.792;2024-03-17T10:07:38;6.93;;;1.73;;
75603;SDS011;64187;51.010;13.792;2024-03-17T10:12:36;3.95;;;1.38;;
75603;SDS011;64187;51.010;13.792;2024-03-17T10:17:34;8.68;;;1.40;;
75603;SDS011;64187;51.010;13.792;2024-03-17T10:22:33;3.30;;;1.40;;
75603;SDS011;64187;51.010;13.792;2024-03-17T10:27:31;7.07;;;1.92;;
75603;SDS011;64187;51.010;13.792;2024-03-17T10:32:30;4.30;;;1.60;;
75603;SDS011;64187;51.010;13.792;2024-03-17T10:37:27;5.45;;;1.80;;
75603;SDS011;64187;51.010;13.792;2024-03-17T10:42:26;5.35;;;1.45;;
75603;SDS011;64187;51.010;13.792;2024-03-17T10:47:33;4.65;;;0.90;;
75603;SDS011;64187;51.010;13.792;2024-03-17T10:52:33;4.28;;;1.30;;
75603;SDS011;64187;51.010;13.792;2024-03-17T11:02:33;4.07;;;1.20;;
75603;SDS011;64187;51.010;13.792;2024-03-17T11:07:33;6.43;;;1.58;;
75603;SDS011;64187;51.010;13.792;2024-03-17T11:12:44;2.78;;;1.77;;
75603;SDS011;64187;51.010;13.792;2024-03-17T11:17:51;3.17;;;1.63;;
75603;SDS011;64187;51.010;13.792;2024-03-17T11:22:50;3.95;;;1.25;;
75603;SDS011;64187;51.010;13.792;2024-03-17T11:27:50;6.13;;;1.75;;
75603;SDS011;64187;51.010;13.792;2024-03-17T11:32:48;7.15;;;1.92;;
75603;SDS011;64187;51.010;13.792;2024-03-17T11:37:46;7.72;;;1.88;;
75603;SDS011;64187;51.010;13.792;2024-03-17T11:42:59;3.67;;;1.50;;
75603;SDS011;64187;51.010;13.792;2024-03-17T11:47:58;10.10;;;1.92;;
75603;SDS011;64187;51.010;13.792;2024-03-17T11:52:59;6.80;;;2.33;;
75603;SDS011;64187;51.010;13.792;2024-03-17T11:57:57;5.32;;;1.92;;
75603;SDS011;64187;51.010;13.792;2024-03-17T12:02:55;5.30;;;1.30;;
75603;SDS011;64187;51.010;13.792;2024-03-17T12:07:55;8.95;;;3.00;;
75603;SDS011;64187;51.010;13.792;2024-03-17T12:12:54;5.25;;;1.63;;
75603;SDS011;64187;51.010;13.792;2024-03-17T12:17:52;6.47;;;2.00;;
75603;SDS011;64187;51.010;13.792;2024-03-17T12:22:50;4.80;;;2.15;;
75603;SDS011;64187;51.010;13.792;2024-03-17T12:27:49;7.80;;;1.50;;
75603;SDS011;64187;51.010;13.792;2024-03-17T12:32:47;5.63;;;1.70;;
75603;SDS011;64187;51.010;13.792;2024-03-17T12:37:47;4.05;;;2.08;;
75603;SDS011;64187;51.010;13.792;2024-03-17T12:42:49;2.63;;;1.33;;
75603;SDS011;64187;51.010;13.792;2024-03-17T12:47:48;3.88;;;1.52;;
75603;SDS011;64187;51.010;13.792;2024-03-17T12:52:52;6.07;;;1.33;;
75603;SDS011;64187;51.010;13.792;2024-03-17T12:58:12;4.53;;;1.50;;
75603;SDS011;64187;51.010;13.792;2024-03-17T13:03:28;3.88;;;1.50;;
75603;SDS011;64187;51.010;13.792;2024-03-17T13:08:32;5.40;;;1.98;;
75603;SDS011;64187;51.010;13.792;2024-03-17T13:13:30;3.33;;;1.48;;
75603;SDS011;64187;51.010;13.792;2024-03-17T13:18:29;2.85;;;1.45;;
75603;SDS011;64187;51.010;13.792;2024-03-17T13:23:27;3.38;;;1.55;;
75603;SDS011;64187;51.010;13.792;2024-03-17T13:28:27;4.75;;;2.13;;
75603;SDS011;64187;51.010;13.792;2024-03-17T13:33:25;3.80;;;2.33;;
75603;SDS011;64187;51.010;13.792;2024-03-17T13:38:23;3.35;;;1.70;;
75603;SDS011;64187;51.010;13.792;2024-03-17T13:43:21;5.22;;;1.60;;
75603;SDS011;64187;51.010;13.792;2024-03-17T13:48:18;4.55;;;2.17;;
75603;SDS011;64187;51.010;13.792;2024-03-17T13:53:17;7.38;;;2.03;;
75603;SDS011;64187;51.010;13.792;2024-03-17T13:58:16;5.53;;;2.05;;
75603;SDS011;64187;51.010;13.792;2024-03-17T14:03:15;5.00;;;1.98;;
75603;SDS011;64187;51.010;13.792;2024-03-17T14:08:13;8.07;;;3.05;;
75603;SDS011;64187;51.010;13.792;2024-03-17T14:13:11;5.30;;;2.17;;
75603;SDS011;64187;51.010;13.792;2024-03-17T14:18:09;4.70;;;2.20;;
75603;SDS011;64187;51.010;13.792;2024-03-17T14:23:07;4.60;;;2.22;;
75603;SDS011;64187;51.010;13.792;2024-03-17T14:28:05;4.70;;;2.72;;
75603;SDS011;64187;51.010;13.792;2024-03-17T14:33:04;3.33;;;1.75;;
75603;SDS011;64187;51.010;13.792;2024-03-17T14:38:03;5.78;;;1.90;;
75603;SDS011;64187;51.010;13.792;2024-03-17T14:43:02;3.63;;;1.65;;
75603;SDS011;64187;51.010;13.792;2024-03-17T14:48:01;6.15;;;2.72;;
75603;SDS011;64187;51.010;13.792;2024-03-17T14:53:00;5.60;;;2.00;;
75603;SDS011;64187;51.010;13.792;2024-03-17T14:57:58;3.92;;;1.70;;
75603;SDS011;64187;51.010;13.792;2024-03-17T15:03:06;6.03;;;1.98;;
75603;SDS011;64187;51.010;13.792;2024-03-17T15:08:05;6.15;;;2.10;;
75603;SDS011;64187;51.010;13.792;2024-03-17T15:13:03;7.80;;;2.65;;
75603;SDS011;64187;51.010;13.792;2024-03-17T15:18:01;5.15;;;1.98;;
75603;SDS011;64187;51.010;13.792;2024-03-17T15:22:59;5.72;;;2.75;;
75603;SDS011;64187;51.010;13.792;2024-03-17T15:27:58;4.68;;;2.25;;
75603;SDS011;64187;51.010;13.792;2024-03-17T15:32:57;3.63;;;2.28;;
75603;SDS011;64187;51.010;13.792;2024-03-17T15:37:55;4.88;;;1.95;;
75603;SDS011;64187;51.010;13.792;2024-03-17T15:42:53;6.47;;;2.65;;
75603;SDS011;64187;51.010;13.792;2024-03-17T15:47:51;5.53;;;2.25;;
75603;SDS011;64187;51.010;13.792;2024-03-17T15:52:51;4.47;;;1.90;;
75603;SDS011;64187;51.010;13.792;2024-03-17T15:57:49;4.13;;;2.13;;
75603;SDS011;64187;51.010;13.792;2024-03-17T16:02:47;4.75;;;2.20;;
75603;SDS011;64187;51.010;13.792;2024-03-17T16:07:45;6.15;;;2.85;;
75603;SDS011;64187;51.010;13.792;2024-03-17T16:12:43;8.18;;;2.80;;
75603;SDS011;64187;51.010;13.792;2024-03-17T16:17:41;5.05;;;2.70;;
75603;SDS011;64187;51.010;13.792;2024-03-17T16:22:40;5.28;;;2.75;;
75603;SDS011;64187;51.010;13.792;2024-03-17T16:27:38;7.22;;;2.13;;
75603;SDS011;64187;51.010;13.792;2024-03-17T16:32:36;5.07;;;2.63;;
75603;SDS011;64187;51.010;13.792;2024-03-17T16:37:33;8.68;;;2.88;;
75603;SDS011;64187;51.010;13.792;2024-03-17T16:42:31;5.60;;;2.50;;
75603;SDS011;64187;51.010;13.792;2024-03-17T16:47:29;5.97;;;2.72;;
75603;SDS011;64187;51.010;13.792;2024-03-17T16:52:30;5.53;;;2.10;;
75603;SDS011;64187;51.010;13.792;2024-03-17T16:57:29;3.80;;;2.35;;
75603;SDS011;64187;51.010;13.792;2024-03-17T17:02:27;4.68;;;1.98;;
75603;SDS011;64187;51.010;13.792;2024-03-17T17:07:25;4.95;;;2.38;;
75603;SDS011;64187;51.010;13.792;2024-03-17T17:12:22;5.15;;;2.40;;
75603;SDS011;64187;51.010;13.792;2024-03-17T17:17:20;5.53;;;2.03;;
75603;SDS011;64187;51.010;13.792;2024-03-17T17:22:18;3.85;;;2.10;;
75603;SDS011;64187;51.010;13.792;2024-03-17T17:27:16;4.85;;;2.03;;
75603;SDS011;64187;51.010;13.792;2024-03-17T17:32:15;5.15;;;2.00;;
75603;SDS011;64187;51.010;13.792;2024-03-17T17:37:13;7.10;;;2.13;;
75603;SDS011;64187;51.010;13.792;2024-03-17T17:42:11;4.70;;;2.35;;
75603;SDS011;64187;51.010;13.792;2024-03-17T17:47:09;5.93;;;2.65;;
75603;SDS011;64187;51.010;13.792;2024-03-17T17:52:07;4.75;;;2.20;;
75603;SDS011;64187;51.010;13.792;2024-03-17T17:57:04;5.57;;;2.50;;
75603;SDS011;64187;51.010;13.792;2024-03-17T18:02:03;10.32;;;4.72;;
75603;SDS011;64187;51.010;13.792;2024-03-17T18:07:01;7.25;;;3.28;;
75603;SDS011;64187;51.010;13.792;2024-03-17T18:11:59;7.07;;;3.45;;
75603;SDS011;64187;51.010;13.792;2024-03-17T18:16:57;6.35;;;3.50;;
75603;SDS011;64187;51.010;13.792;2024-03-17T18:21:56;7.65;;;4.28;;
75603;SDS011;64187;51.010;13.792;2024-03-17T18:26:54;7.63;;;3.97;;
75603;SDS011;64187;51.010;13.792;2024-03-17T18:31:52;9.38;;;4.20;;
75603;SDS011;64187;51.010;13.792;2024-03-17T18:36:50;8.70;;;4.50;;
75603;SDS011;64187;51.010;13.792;2024-03-17T18:41:48;6.35;;;4.05;;
75603;SDS011;64187;51.010;13.792;2024-03-17T18:46:46;6.18;;;3.58;;
75603;SDS011;64187;51.010;13.792;2024-03-17T18:51:44;5.70;;;3.88;;
75603;SDS011;64187;51.010;13.792;2024-03-17T18:56:42;6.78;;;4.53;;
75603;SDS011;64187;51.010;13.792;2024-03-17T19:01:40;7.80;;;4.50;;
75603;SDS011;64187;51.010;13.792;2024-03-17T19:06:38;7.13;;;4.40;;
75603;SDS011;64187;51.010;13.792;2024-03-17T19:11:36;10.95;;;4.68;;
75603;SDS011;64187;51.010;13.792;2024-03-17T19:16:35;6.45;;;4.07;;
75603;SDS011;64187;51.010;13.792;2024-03-17T19:21:33;7.97;;;4.70;;
75603;SDS011;64187;51.010;13.792;2024-03-17T19:26:33;7.72;;;4.88;;
75603;SDS011;64187;51.010;13.792;2024-03-17T19:31:31;7.90;;;4.88;;
75603;SDS011;64187;51.010;13.792;2024-03-17T19:36:29;8.68;;;4.80;;
75603;SDS011;64187;51.010;13.792;2024-03-17T19:41:26;10.32;;;4.70;;
75603;SDS011;64187;51.010;13.792;2024-03-17T19:46:25;9.40;;;4.78;;
75603;SDS011;64187;51.010;13.792;2024-03-17T19:51:23;9.50;;;5.45;;
75603;SDS011;64187;51.010;13.792;2024-03-17T19:56:26;10.85;;;5.90;;
75603;SDS011;64187;51.010;13.792;2024-03-17T20:01:24;12.45;;;8.20;;
75603;SDS011;64187;51.010;13.792;2024-03-17T20:06:23;16.92;;;8.98;;
75603;SDS011;64187;51.010;13.792;2024-03-17T20:11:21;15.10;;;7.55;;
75603;SDS011;64187;51.010;13.792;2024-03-17T20:16:24;16.70;;;7.40;;
75603;SDS011;64187;51.010;13.792;2024-03-17T20:21:28;11.18;;;6.45;;
75603;SDS011;64187;51.010;13.792;2024-03-17T20:26:26;12.00;;;5.72;;
75603;SDS011;64187;51.010;13.792;2024-03-17T20:31:27;9.95;;;5.40;;
75603;SDS011;64187;51.010;13.792;2024-03-17T20:36:25;10.25;;;4.85;;
75603;SDS011;64187;51.010;13.792;2024-03-17T20:41:24;10.55;;;5.28;;
75603;SDS011;64187;51.010;13.792;2024-03-17T20:46:21;8.93;;;5.65;;
75603;SDS011;64187;51.010;13.792;2024-03-17T20:51:19;12.20;;;5.07;;
75603;SDS011;64187;51.010;13.792;2024-03-17T20:56:18;9.02;;;5.32;;
75603;SDS011;64187;51.010;13.792;2024-03-17T21:01:17;11.18;;;5.72;;
75603;SDS011;64187;51.010;13.792;2024-03-17T21:06:14;11.10;;;5.40;;
75603;SDS011;64187;51.010;13.792;2024-03-17T21:11:12;14.10;;;6.75;;
75603;SDS011;64187;51.010;13.792;2024-03-17T21:16:12;7.78;;;4.25;;
75603;SDS011;64187;51.010;13.792;2024-03-17T21:21:11;4.72;;;3.33;;
75603;SDS011;64187;51.010;13.792;2024-03-17T21:26:08;8.57;;;3.97;;
75603;SDS011;64187;51.010;13.792;2024-03-17T21:31:06;5.75;;;3.30;;
75603;SDS011;64187;51.010;13.792;2024-03-17T21:36:05;8.90;;;4.35;;
75603;SDS011;64187;51.010;13.792;2024-03-17T21:41:03;9.63;;;4.53;;
75603;SDS011;64187;51.010;13.792;2024-03-17T21:46:01;7.22;;;4.13;;
75603;SDS011;64187;51.010;13.792;2024-03-17T21:50:59;5.50;;;2.97;;
75603;SDS011;64187;51.010;13.792;2024-03-17T21:55:58;9.90;;;6.60;;
75603;SDS011;64187;51.010;13.792;2024-03-17T22:01:01;7.95;;;4.70;;
75603;SDS011;64187;51.010;13.792;2024-03-17T22:06:01;8.07;;;4.38;;
75603;SDS011;64187;51.010;13.792;2024-03-17T22:11:00;7.78;;;3.85;;
75603;SDS011;64187;51.010;13.792;2024-03-17T22:16:00;7.50;;;4.13;;
75603;SDS011;64187;51.010;13.792;2024-03-17T22:20:59;10.93;;;5.05;;
75603;SDS011;64187;51.010;13.792;2024-03-17T22:26:02;12.13;;;5.88;;
75603;SDS011;64187;51.010;13.792;2024-03-17T22:31:00;7.97;;;4.45;;
75603;SDS011;64187;51.010;13.792;2024-03-17T22:36:04;10.25;;;5.10;;
75603;SDS011;64187;51.010;13.792;2024-03-17T22:41:07;8.88;;;4.72;;
75603;SDS011;64187;51.010;13.792;2024-03-17T22:46:07;7.00;;;3.25;;
75603;SDS011;64187;51.010;13.792;2024-03-17T22:51:10;7.70;;;4.30;;
75603;SDS011;64187;51.010;13.792;2024-03-17T22:56:10;9.77;;;4.40;;
75603;SDS011;64187;51.010;13.792;2024-03-17T23:01:08;11.25;;;4.85;;
75603;SDS011;64187;51.010;13.792;2024-03-17T23:06:07;10.18;;;5.25;;
75603;SDS011;64187;51.010;13.792;2024-03-17T23:11:09;12.13;;;5.05;;
75603;SDS011;64187;51.010;13.792;2024-03-17T23:16:07;9.48;;;5.53;;
75603;SDS011;64187;51.010;13.792;2024-03-17T23:21:05;9.52;;;5.28;;
75603;SDS011;64187;51.010;13.792;2024-03-17T23:26:03;8.02;;;5.25;;
75603;SDS011;64187;51.010;13.792;2024-03-17T23:31:01;9.48;;;4.72;;
75603;SDS011;64187;51.010;13.792;2024-03-17T23:36:01;8.38;;;4.47;;
75603;SDS011;64187;51.010;13.792;2024-03-17T23:40:59;8.90;;;4.07;;
75603;SDS011;64187;51.010;13.792;2024-03-17T23:45:56;6.93;;;3.88;;
75603;SDS011;64187;51.010;13.792;2024-03-17T23:50:54;6.40;;;3.65;;
75603;SDS011;64187;51.010;13.792;2024-03-17T23:55:52;8.38;;;3.90;;
